Time;durP1;ratioP1;P1;durP2;ratioP2;P2;SDS_P1;SDS_P2;PMS_P1;PMS_P2;Temp;Humidity;BMP_temperature;BMP_pressure;BME280_temperature;BME280_humidity;BME280_pressure;Samples;Min_cycle;Max_cycle;Signal;HPM_P1;HPM_P2
2023/08/28 00:01:57;;;;;;;10.90;8.17;;;;;;;;;;5017424;28;20022;-67
2023/08/28 00:04:22;;;;;;;13.00;9.07;;;;;;;;;;5015968;28;20060;-68
2023/08/28 00:06:47;;;;;;;11.57;8.73;;;;;;;;;;5015686;28;20033;-67
2023/08/28 00:09:12;;;;;;;15.20;9.33;;;;;;;;;;5015703;28;20387;-68
2023/08/28 00:11:38;;;;;;;12.13;9.03;;;;;;;;;;5015555;28;20390;-68
2023/08/28 00:14:03;;;;;;;15.40;9.63;;;;;;;;;;5015530;28;20386;-68
2023/08/28 00:16:28;;;;;;;14.03;9.67;;;;;;;;;;5015207;28;20470;-67
2023/08/28 00:18:53;;;;;;;15.33;10.00;;;;;;;;;;5015513;28;20026;-68
2023/08/28 00:21:19;;;;;;;16.30;9.70;;;;;;;;;;5014336;28;20104;-67
2023/08/28 00:23:44;;;;;;;13.53;9.17;;;;;;;;;;5020830;28;20030;-67
2023/08/28 00:26:09;;;;;;;15.40;9.93;;;;;;;;;;5031638;28;20076;-67
2023/08/28 00:28:34;;;;;;;15.57;10.93;;;;;;;;;;5011498;28;20026;-67
2023/08/28 00:31:02;;;;;;;16.60;11.03;;;;;;;;;;5014475;28;20367;-67
2023/08/28 00:33:27;;;;;;;17.03;10.77;;;;;;;;;;5014969;28;20045;-68
2023/08/28 00:35:53;;;;;;;15.47;11.20;;;;;;;;;;5015238;28;20438;-67
2023/08/28 00:38:18;;;;;;;18.47;12.03;;;;;;;;;;5014916;28;20405;-68
2023/08/28 00:40:43;;;;;;;20.90;12.10;;;;;;;;;;5014619;28;20360;-68
2023/08/28 00:43:08;;;;;;;16.30;11.43;;;;;;;;;;5012687;28;20038;-68
2023/08/28 00:45:35;;;;;;;18.77;12.50;;;;;;;;;;5011492;28;20429;-68
2023/08/28 00:48:01;;;;;;;19.27;12.67;;;;;;;;;;5018469;28;20524;-68
2023/08/28 00:50:26;;;;;;;19.40;13.23;;;;;;;;;;5032014;28;20112;-63
2023/08/28 00:52:51;;;;;;;18.83;12.83;;;;;;;;;;5014457;28;20057;-68
2023/08/28 00:55:16;;;;;;;20.53;13.93;;;;;;;;;;5014795;28;20026;-68
2023/08/28 00:57:42;;;;;;;23.33;14.53;;;;;;;;;;5014678;28;20030;-68
2023/08/28 01:03:10;;;;;;;23.70;15.20;;;;;;;;;;5048372;23;20055;-65
2023/08/28 01:05:38;;;;;;;25.97;15.27;;;;;;;;;;5066258;28;20452;-65
2023/08/28 01:08:14;;;;;;;25.07;15.43;;;;;;;;;;5063385;28;20028;-65
2023/08/28 01:10:43;;;;;;;23.10;14.90;;;;;;;;;;5053109;28;20027;-66
2023/08/28 01:13:17;;;;;;;24.63;15.60;;;;;;;;;;5053678;28;20480;-66
2023/08/28 01:15:42;;;;;;;29.53;16.40;;;;;;;;;;5053318;28;20487;-65
2023/08/28 01:18:08;;;;;;;27.83;16.30;;;;;;;;;;5052432;28;20033;-66
2023/08/28 01:20:34;;;;;;;26.33;16.87;;;;;;;;;;5057821;28;20028;-66
2023/08/28 01:23:16;;;;;;;31.20;17.73;;;;;;;;;;5062641;28;20021;-66
2023/08/28 01:25:42;;;;;;;29.33;17.43;;;;;;;;;;5050367;28;20025;-67
2023/08/28 01:28:07;;;;;;;36.27;19.30;;;;;;;;;;5052523;28;20047;-66
2023/08/28 01:30:32;;;;;;;34.30;18.63;;;;;;;;;;5053681;28;20108;-66
2023/08/28 01:32:58;;;;;;;34.53;18.93;;;;;;;;;;5052302;28;20044;-67
2023/08/28 01:35:28;;;;;;;35.17;19.57;;;;;;;;;;5053849;28;20028;-66
2023/08/28 01:38:13;;;;;;;32.43;17.30;;;;;;;;;;5053180;28;20074;-65
2023/08/28 01:40:50;;;;;;;33.40;17.57;;;;;;;;;;5054040;28;20485;-66
2023/08/28 01:43:18;;;;;;;31.97;18.93;;;;;;;;;;5052222;28;20416;-66
2023/08/28 01:45:44;;;;;;;35.47;19.17;;;;;;;;;;5051394;28;20057;-67
2023/08/28 01:48:09;;;;;;;33.77;19.27;;;;;;;;;;5051053;28;20078;-66
2023/08/28 01:50:35;;;;;;;35.27;20.27;;;;;;;;;;5051279;28;20362;-66
2023/08/28 01:53:00;;;;;;;34.63;19.70;;;;;;;;;;5051397;28;20039;-66
2023/08/28 01:55:44;;;;;;;31.83;19.47;;;;;;;;;;5052925;28;20024;-65
2023/08/28 01:58:09;;;;;;;36.40;18.97;;;;;;;;;;5051110;28;20028;-66
2023/08/28 02:00:34;;;;;;;33.70;19.03;;;;;;;;;;5051961;28;20035;-66
2023/08/28 02:02:59;;;;;;;33.17;19.23;;;;;;;;;;5051861;28;20124;-66
2023/08/28 02:05:26;;;;;;;33.13;18.97;;;;;;;;;;5049756;28;20109;-66
2023/08/28 02:07:51;;;;;;;35.37;19.43;;;;;;;;;;5057787;28;20035;-66
2023/08/28 02:10:16;;;;;;;33.40;18.87;;;;;;;;;;5052082;28;20021;-69
2023/08/28 02:12:41;;;;;;;29.83;17.97;;;;;;;;;;5050784;28;20028;-68
2023/08/28 02:15:07;;;;;;;33.07;18.87;;;;;;;;;;5054746;28;20104;-69
2023/08/28 02:17:32;;;;;;;34.63;18.97;;;;;;;;;;5050878;28;20025;-68
2023/08/28 02:19:57;;;;;;;35.43;18.67;;;;;;;;;;5048826;28;20488;-69
2023/08/28 02:22:23;;;;;;;34.93;19.07;;;;;;;;;;5050316;28;20025;-69
2023/08/28 02:24:48;;;;;;;38.53;20.27;;;;;;;;;;5050963;28;20032;-69
2023/08/28 02:27:13;;;;;;;34.67;18.07;;;;;;;;;;5050979;28;20024;-68
2023/08/28 02:29:38;;;;;;;35.07;19.20;;;;;;;;;;5050698;28;20044;-69
2023/08/28 02:32:04;;;;;;;32.33;18.90;;;;;;;;;;5047462;28;20022;-69
2023/08/28 02:34:29;;;;;;;33.80;19.20;;;;;;;;;;5048119;28;20021;-69
2023/08/28 02:36:54;;;;;;;35.60;19.17;;;;;;;;;;5050864;28;20033;-68
2023/08/28 02:39:19;;;;;;;41.90;20.30;;;;;;;;;;5051270;28;20029;-68
2023/08/28 02:41:45;;;;;;;38.47;21.30;;;;;;;;;;5054977;28;20032;-69
2023/08/28 02:44:10;;;;;;;37.73;20.37;;;;;;;;;;5047424;28;20104;-69
2023/08/28 02:46:35;;;;;;;41.10;20.17;;;;;;;;;;5051728;28;20021;-69
2023/08/28 02:49:01;;;;;;;37.33;20.40;;;;;;;;;;5052715;28;20083;-69
2023/08/28 02:51:26;;;;;;;35.53;20.40;;;;;;;;;;5050581;28;20021;-69
2023/08/28 02:53:52;;;;;;;39.20;22.00;;;;;;;;;;5052609;28;20028;-69
2023/08/28 02:56:17;;;;;;;39.97;21.23;;;;;;;;;;5052685;28;20424;-67
2023/08/28 02:58:42;;;;;;;41.63;22.43;;;;;;;;;;5052107;28;20021;-69
2023/08/28 03:01:07;;;;;;;39.27;22.03;;;;;;;;;;5050334;28;20032;-69
2023/08/28 03:03:33;;;;;;;47.17;24.27;;;;;;;;;;5052174;28;20045;-69
2023/08/28 03:05:59;;;;;;;44.20;23.90;;;;;;;;;;5052235;28;20044;-69
2023/08/28 03:08:24;;;;;;;47.10;23.70;;;;;;;;;;5051710;28;20135;-69
2023/08/28 03:10:51;;;;;;;50.27;23.83;;;;;;;;;;5052127;28;20024;-69
2023/08/28 03:13:16;;;;;;;54.03;25.13;;;;;;;;;;5052262;28;20017;-69
2023/08/28 03:15:42;;;;;;;54.07;25.40;;;;;;;;;;5052204;28;20526;-69
2023/08/28 03:18:07;;;;;;;55.07;26.17;;;;;;;;;;5051431;28;20021;-69
2023/08/28 03:20:32;;;;;;;59.90;27.43;;;;;;;;;;5050324;28;20060;-66
2023/08/28 03:22:58;;;;;;;54.77;26.30;;;;;;;;;;5058537;28;20436;-66
2023/08/28 03:25:23;;;;;;;57.43;26.57;;;;;;;;;;5049474;28;20017;-66
2023/08/28 03:27:49;;;;;;;75.80;28.60;;;;;;;;;;5049857;28;20500;-66
2023/08/28 03:30:14;;;;;;;65.00;28.90;;;;;;;;;;5049179;28;20088;-66
2023/08/28 03:32:39;;;;;;;70.33;29.50;;;;;;;;;;5049842;28;20017;-67
2023/08/28 03:35:05;;;;;;;68.93;28.87;;;;;;;;;;5049941;28;20023;-66
2023/08/28 03:37:30;;;;;;;73.07;29.17;;;;;;;;;;5048073;28;20094;-66
2023/08/28 03:39:55;;;;;;;75.03;30.60;;;;;;;;;;5049620;28;20885;-66
2023/08/28 03:42:20;;;;;;;78.90;29.60;;;;;;;;;;5050866;28;20025;-66
2023/08/28 03:44:45;;;;;;;80.00;31.67;;;;;;;;;;5048263;28;20485;-66
2023/08/28 03:47:11;;;;;;;83.67;31.83;;;;;;;;;;5050699;28;20552;-66
2023/08/28 03:49:36;;;;;;;82.97;31.13;;;;;;;;;;5049131;28;20025;-66
2023/08/28 03:52:01;;;;;;;87.80;32.70;;;;;;;;;;5050201;28;20082;-67
2023/08/28 03:54:28;;;;;;;92.33;34.37;;;;;;;;;;5054060;28;20021;-66
2023/08/28 03:56:53;;;;;;;94.70;33.97;;;;;;;;;;5057565;28;20023;-66
2023/08/28 03:59:18;;;;;;;91.97;35.63;;;;;;;;;;5050216;28;20103;-66
2023/08/28 04:01:44;;;;;;;105.13;35.13;;;;;;;;;;5048681;28;20056;-66
2023/08/28 04:04:09;;;;;;;109.53;36.87;;;;;;;;;;5050269;28;20091;-66
2023/08/28 04:06:34;;;;;;;108.33;36.90;;;;;;;;;;5050589;28;20025;-66
2023/08/28 04:08:59;;;;;;;109.47;36.70;;;;;;;;;;5047643;28;20115;-68
2023/08/28 04:11:25;;;;;;;109.60;35.37;;;;;;;;;;5049226;28;20036;-66
2023/08/28 04:13:50;;;;;;;115.77;38.23;;;;;;;;;;5050289;28;20071;-67
2023/08/28 04:16:18;;;;;;;113.57;37.57;;;;;;;;;;5049115;28;20056;-66
2023/08/28 04:18:43;;;;;;;120.53;38.93;;;;;;;;;;5049681;28;20018;-66
2023/08/28 04:21:08;;;;;;;127.37;38.90;;;;;;;;;;5047574;28;20028;-67
2023/08/28 04:23:34;;;;;;;124.10;38.07;;;;;;;;;;5047569;28;20021;-66
2023/08/28 04:26:00;;;;;;;128.60;39.40;;;;;;;;;;5049565;28;20095;-66
2023/08/28 04:28:25;;;;;;;134.67;41.50;;;;;;;;;;5052645;28;20020;-66
2023/08/28 04:30:50;;;;;;;131.10;41.20;;;;;;;;;;5052807;28;20020;-69
2023/08/28 04:33:15;;;;;;;130.50;38.33;;;;;;;;;;5050286;28;20025;-69
2023/08/28 04:35:41;;;;;;;142.37;38.73;;;;;;;;;;5053144;28;20534;-68
2023/08/28 04:38:06;;;;;;;133.77;38.07;;;;;;;;;;5050113;28;20601;-68
2023/08/28 04:40:31;;;;;;;130.50;36.87;;;;;;;;;;5054871;28;20016;-68
2023/08/28 04:42:56;;;;;;;128.87;37.00;;;;;;;;;;5054147;28;20033;-69
2023/08/28 04:45:22;;;;;;;135.57;36.87;;;;;;;;;;5051158;28;20029;-68
2023/08/28 04:47:47;;;;;;;118.80;36.50;;;;;;;;;;5050547;28;20033;-68
2023/08/28 04:50:12;;;;;;;145.60;41.47;;;;;;;;;;5045655;28;20032;-68
2023/08/28 04:52:37;;;;;;;149.77;43.33;;;;;;;;;;5052020;28;20027;-69
2023/08/28 04:55:03;;;;;;;158.87;44.30;;;;;;;;;;5052043;28;20065;-69
2023/08/28 04:57:28;;;;;;;153.03;45.07;;;;;;;;;;5052792;28;20045;-68
2023/08/28 04:59:53;;;;;;;163.90;46.43;;;;;;;;;;5055963;28;20083;-69
2023/08/28 05:02:19;;;;;;;151.10;46.43;;;;;;;;;;5072749;28;20025;-69
2023/08/28 05:04:45;;;;;;;137.07;45.77;;;;;;;;;;5050934;28;20036;-70
2023/08/28 05:07:11;;;;;;;117.53;41.90;;;;;;;;;;5054826;28;20026;-71
2023/08/28 05:09:36;;;;;;;110.73;40.70;;;;;;;;;;5067238;28;20349;-71
2023/08/28 05:12:01;;;;;;;86.67;36.50;;;;;;;;;;5060625;28;20013;-71
2023/08/28 05:14:27;;;;;;;70.60;34.30;;;;;;;;;;5055648;28;20162;-71
2023/08/28 05:16:52;;;;;;;70.07;33.57;;;;;;;;;;5054216;28;20018;-71
2023/08/28 05:19:17;;;;;;;56.67;27.23;;;;;;;;;;5054279;28;20024;-70
2023/08/28 05:21:42;;;;;;;49.30;26.63;;;;;;;;;;5053501;28;20017;-71
2023/08/28 05:24:07;;;;;;;41.70;23.57;;;;;;;;;;5054512;28;20058;-71
2023/08/28 05:26:33;;;;;;;33.58;21.33;;;;;;;;;;5053730;28;20020;-71
2023/08/28 05:28:58;;;;;;;26.45;17.52;;;;;;;;;;5053918;28;20061;-70
2023/08/28 05:31:23;;;;;;;24.10;16.55;;;;;;;;;;5054252;28;20067;-70
2023/08/28 05:33:48;;;;;;;20.88;14.80;;;;;;;;;;5065949;28;20048;-71
2023/08/28 05:36:14;;;;;;;19.70;13.25;;;;;;;;;;5050224;28;20013;-71
2023/08/28 05:38:39;;;;;;;19.50;12.65;;;;;;;;;;5052792;28;20017;-71
2023/08/28 05:41:04;;;;;;;18.23;11.45;;;;;;;;;;5054194;28;20021;-66
2023/08/28 05:43:29;;;;;;;16.25;11.02;;;;;;;;;;5053640;28;20009;-66
2023/08/28 05:45:55;;;;;;;14.25;9.35;;;;;;;;;;5054132;28;20025;-66
2023/08/28 05:48:20;;;;;;;14.10;9.80;;;;;;;;;;5053988;28;20024;-66
2023/08/28 05:50:48;;;;;;;14.25;9.45;;;;;;;;;;5053912;28;20040;-67
2023/08/28 05:53:13;;;;;;;15.23;10.13;;;;;;;;;;5053742;28;20017;-66
2023/08/28 05:55:39;;;;;;;15.68;9.80;;;;;;;;;;5053606;28;20020;-67
2023/08/28 05:58:04;;;;;;;13.18;9.55;;;;;;;;;;5053453;28;20029;-66
2023/08/28 06:00:29;;;;;;;14.05;8.95;;;;;;;;;;5053142;28;20021;-67
2023/08/28 06:02:55;;;;;;;13.32;8.93;;;;;;;;;;5053386;28;20057;-66
2023/08/28 06:05:20;;;;;;;11.70;8.73;;;;;;;;;;5053486;28;20075;-66
2023/08/28 06:07:45;;;;;;;11.82;8.38;;;;;;;;;;5053255;28;20544;-66
2023/08/28 06:10:12;;;;;;;11.80;8.77;;;;;;;;;;5055949;28;20029;-66
2023/08/28 06:12:38;;;;;;;13.68;8.88;;;;;;;;;;5052265;28;20404;-67
2023/08/28 06:15:04;;;;;;;13.48;8.23;;;;;;;;;;5068258;28;20012;-66
2023/08/28 06:17:30;;;;;;;11.68;7.97;;;;;;;;;;5061760;28;20021;-66
2023/08/28 06:19:55;;;;;;;14.07;8.45;;;;;;;;;;5064625;28;20032;-66
2023/08/28 06:22:20;;;;;;;14.50;8.63;;;;;;;;;;5067262;28;20074;-66
2023/08/28 06:24:50;;;;;;;10.80;7.85;;;;;;;;;;5066072;28;20169;-66
2023/08/28 06:27:15;;;;;;;13.70;8.15;;;;;;;;;;5056286;28;20029;-66
2023/08/28 06:29:40;;;;;;;10.52;7.45;;;;;;;;;;5051926;28;20029;-66
2023/08/28 06:32:05;;;;;;;11.38;7.30;;;;;;;;;;5050965;28;20481;-67
2023/08/28 06:34:31;;;;;;;10.77;7.13;;;;;;;;;;5055891;28;20020;-66
2023/08/28 06:36:56;;;;;;;9.68;7.15;;;;;;;;;;5058667;28;20112;-67
2023/08/28 06:39:21;;;;;;;9.45;6.88;;;;;;;;;;5062999;28;20113;-66
2023/08/28 06:41:46;;;;;;;9.73;6.50;;;;;;;;;;5060039;28;20032;-66
2023/08/28 06:44:12;;;;;;;13.98;6.75;;;;;;;;;;5061209;28;20024;-66
2023/08/28 06:46:37;;;;;;;9.63;6.45;;;;;;;;;;5071615;28;20039;-66
2023/08/28 06:49:02;;;;;;;10.75;7.15;;;;;;;;;;5068211;28;20032;-67
2023/08/28 06:51:28;;;;;;;11.70;7.00;;;;;;;;;;5052239;28;20029;-70
2023/08/28 06:53:53;;;;;;;11.85;7.43;;;;;;;;;;5051221;28;20032;-70
2023/08/28 06:56:19;;;;;;;10.27;5.97;;;;;;;;;;5052775;28;20453;-69
2023/08/28 06:58:44;;;;;;;9.30;6.15;;;;;;;;;;5065763;28;20013;-71
2023/08/28 07:01:10;;;;;;;9.90;6.32;;;;;;;;;;5052542;28;20096;-69
2023/08/28 07:03:35;;;;;;;10.68;6.45;;;;;;;;;;5051958;28;20114;-72
2023/08/28 07:06:00;;;;;;;9.25;6.10;;;;;;;;;;5052227;28;20060;-70
2023/08/28 07:08:25;;;;;;;9.52;6.03;;;;;;;;;;5052214;28;20052;-71
2023/08/28 07:10:51;;;;;;;9.55;5.75;;;;;;;;;;5052115;28;20028;-71
2023/08/28 07:13:16;;;;;;;6.93;5.05;;;;;;;;;;5062400;28;20075;-71
2023/08/28 07:15:42;;;;;;;7.53;5.05;;;;;;;;;;5066368;28;20017;-70
2023/08/28 07:18:07;;;;;;;7.07;4.60;;;;;;;;;;5067850;28;20115;-72
2023/08/28 07:20:32;;;;;;;8.38;4.55;;;;;;;;;;5067376;28;20017;-71
2023/08/28 07:22:57;;;;;;;5.97;4.25;;;;;;;;;;5051991;28;20050;-70
2023/08/28 07:25:23;;;;;;;8.15;5.10;;;;;;;;;;5051972;28;20021;-72
2023/08/28 07:27:51;;;;;;;6.53;4.22;;;;;;;;;;5056394;28;20103;-71
2023/08/28 07:30:17;;;;;;;11.50;4.32;;;;;;;;;;5071026;28;20028;-71
2023/08/28 07:32:42;;;;;;;8.75;3.90;;;;;;;;;;5070649;28;20021;-71
2023/08/28 07:35:08;;;;;;;6.72;3.60;;;;;;;;;;5070954;28;20484;-72
2023/08/28 07:37:34;;;;;;;7.93;3.88;;;;;;;;;;5070970;28;20491;-71
2023/08/28 07:39:59;;;;;;;6.55;4.40;;;;;;;;;;5070680;28;20020;-71
2023/08/28 07:42:24;;;;;;;8.43;4.15;;;;;;;;;;5070948;28;20021;-71
2023/08/28 07:44:49;;;;;;;6.38;3.67;;;;;;;;;;5070823;28;20458;-70
2023/08/28 07:47:15;;;;;;;7.18;3.60;;;;;;;;;;5070584;28;20461;-71
2023/08/28 07:49:41;;;;;;;8.18;3.50;;;;;;;;;;5070624;28;20013;-71
2023/08/28 07:52:06;;;;;;;7.75;3.67;;;;;;;;;;5070602;28;20017;-72
2023/08/28 07:54:31;;;;;;;6.43;3.25;;;;;;;;;;5070384;28;20051;-71
2023/08/28 07:56:57;;;;;;;6.30;2.95;;;;;;;;;;5066412;28;20021;-72
2023/08/28 07:59:22;;;;;;;5.82;2.95;;;;;;;;;;5051963;28;20461;-72
2023/08/28 08:01:48;;;;;;;5.78;2.95;;;;;;;;;;5052608;28;20481;-71
2023/08/28 08:04:13;;;;;;;5.05;2.70;;;;;;;;;;5055422;28;20429;-70
2023/08/28 08:06:38;;;;;;;5.20;2.80;;;;;;;;;;5055853;28;20078;-71
2023/08/28 08:09:04;;;;;;;5.57;2.90;;;;;;;;;;5055345;28;20126;-70
2023/08/28 08:11:29;;;;;;;5.85;2.83;;;;;;;;;;5055312;28;20012;-70
2023/08/28 08:13:54;;;;;;;7.07;3.22;;;;;;;;;;5055438;28;20017;-71
2023/08/28 08:16:19;;;;;;;7.85;2.60;;;;;;;;;;5055421;28;20025;-72
2023/08/28 08:18:45;;;;;;;5.07;2.60;;;;;;;;;;5055660;28;20025;-70
2023/08/28 08:21:10;;;;;;;7.75;2.00;;;;;;;;;;5055593;28;20028;-71
2023/08/28 08:23:35;;;;;;;5.57;2.70;;;;;;;;;;5055073;28;20060;-70
2023/08/28 08:26:00;;;;;;;9.55;2.50;;;;;;;;;;5055262;28;20025;-70
2023/08/28 08:28:25;;;;;;;7.28;2.30;;;;;;;;;;5054267;28;20021;-71
2023/08/28 08:30:51;;;;;;;4.55;2.40;;;;;;;;;;5054164;28;20048;-71
2023/08/28 08:33:17;;;;;;;5.82;2.20;;;;;;;;;;5055322;28;20021;-72
2023/08/28 08:35:42;;;;;;;4.18;1.80;;;;;;;;;;5055287;28;20351;-71
2023/08/28 08:38:08;;;;;;;5.40;2.30;;;;;;;;;;5053332;28;20067;-70
2023/08/28 08:40:34;;;;;;;5.65;1.92;;;;;;;;;;5055187;28;20013;-71
2023/08/28 08:42:59;;;;;;;5.25;1.95;;;;;;;;;;5055249;28;20017;-71
2023/08/28 08:45:28;;;;;;;4.05;2.13;;;;;;;;;;5055221;28;20028;-71
2023/08/28 08:47:54;;;;;;;5.15;1.88;;;;;;;;;;5055165;28;20086;-71
2023/08/28 08:50:20;;;;;;;4.32;1.80;;;;;;;;;;5054839;28;20021;-71
2023/08/28 08:52:47;;;;;;;6.30;2.15;;;;;;;;;;5054658;28;20021;-71
2023/08/28 08:55:17;;;;;;;5.53;1.90;;;;;;;;;;5054905;28;20477;-71
2023/08/28 08:57:45;;;;;;;6.93;1.67;;;;;;;;;;5058121;28;20063;-71
2023/08/28 09:00:13;;;;;;;6.40;1.73;;;;;;;;;;5054633;28;20021;-71
2023/08/28 09:02:38;;;;;;;3.60;1.60;;;;;;;;;;5054525;28;20044;-72
2023/08/28 09:05:05;;;;;;;3.80;1.33;;;;;;;;;;5054521;28;20505;-70
2023/08/28 09:07:31;;;;;;;3.42;1.23;;;;;;;;;;5054802;28;20480;-71
2023/08/28 09:09:56;;;;;;;7.88;1.70;;;;;;;;;;5054655;28;20017;-71
2023/08/28 09:12:22;;;;;;;2.70;0.93;;;;;;;;;;5054275;28;20018;-67
2023/08/28 09:14:47;;;;;;;4.18;1.30;;;;;;;;;;5054259;28;20024;-66
2023/08/28 09:17:12;;;;;;;3.47;1.25;;;;;;;;;;5053555;28;20017;-68
2023/08/28 09:19:38;;;;;;;2.95;1.10;;;;;;;;;;5053349;28;20025;-66
2023/08/28 09:22:03;;;;;;;2.67;0.95;;;;;;;;;;5073259;28;20098;-66
2023/08/28 09:24:29;;;;;;;3.38;1.00;;;;;;;;;;5073186;28;20020;-66
2023/08/28 09:26:54;;;;;;;1.88;0.90;;;;;;;;;;5072694;28;20013;-66
2023/08/28 09:29:21;;;;;;;2.70;0.90;;;;;;;;;;5072691;28;20055;-66
2023/08/28 09:31:47;;;;;;;2.78;0.80;;;;;;;;;;5065497;28;20016;-66
2023/08/28 09:34:13;;;;;;;3.67;0.63;;;;;;;;;;5072591;28;20044;-66
2023/08/28 09:36:40;;;;;;;4.40;1.17;;;;;;;;;;5072896;28;20051;-66
2023/08/28 09:39:06;;;;;;;3.70;0.80;;;;;;;;;;5073031;28;20017;-66
2023/08/28 09:41:47;;;;;;;2.65;0.73;;;;;;;;;;5072399;28;20483;-67
2023/08/28 09:44:14;;;;;;;3.38;1.00;;;;;;;;;;5072718;28;20020;-67
2023/08/28 09:46:41;;;;;;;4.22;0.90;;;;;;;;;;5072726;28;20016;-65
2023/08/28 09:49:08;;;;;;;3.00;0.70;;;;;;;;;;5072012;28;20097;-65
2023/08/28 09:51:40;;;;;;;3.42;0.85;;;;;;;;;;5072871;28;20043;-65
2023/08/28 09:54:05;;;;;;;1.98;0.60;;;;;;;;;;5072323;28;20031;-65
2023/08/28 09:56:31;;;;;;;3.15;0.70;;;;;;;;;;5071423;28;20016;-66
2023/08/28 09:59:03;;;;;;;1.52;0.60;;;;;;;;;;5053396;28;20040;-66
2023/08/28 10:01:29;;;;;;;3.25;0.80;;;;;;;;;;5053344;28;20028;-66
2023/08/28 10:03:56;;;;;;;3.42;0.60;;;;;;;;;;5053224;28;20063;-66
2023/08/28 10:06:22;;;;;;;4.80;0.70;;;;;;;;;;5053013;28;20071;-66
2023/08/28 10:08:49;;;;;;;2.42;0.63;;;;;;;;;;5053369;28;20465;-66
2023/08/28 10:11:14;;;;;;;3.70;0.82;;;;;;;;;;5052788;28;20027;-66
2023/08/28 10:13:39;;;;;;;3.67;0.50;;;;;;;;;;5053160;28;20024;-67
2023/08/28 10:16:06;;;;;;;3.05;0.60;;;;;;;;;;5053171;28;20009;-66
2023/08/28 10:18:39;;;;;;;2.75;0.70;;;;;;;;;;5053120;28;20044;-67
2023/08/28 10:21:04;;;;;;;1.98;0.60;;;;;;;;;;5053310;28;20086;-68
2023/08/28 10:23:30;;;;;;;3.13;0.70;;;;;;;;;;5071490;28;20095;-68
2023/08/28 10:25:56;;;;;;;2.25;0.50;;;;;;;;;;5070860;28;20017;-67
2023/08/28 10:28:22;;;;;;;2.40;0.68;;;;;;;;;;5071726;28;20016;-67
2023/08/28 10:30:51;;;;;;;1.23;0.43;;;;;;;;;;5071525;28;20024;-66
2023/08/28 10:33:18;;;;;;;2.40;0.60;;;;;;;;;;5065785;28;20020;-67
2023/08/28 10:35:44;;;;;;;4.25;0.60;;;;;;;;;;5053108;28;20372;-66
2023/08/28 10:38:10;;;;;;;1.25;0.60;;;;;;;;;;5050288;28;20031;-67
2023/08/28 10:40:36;;;;;;;1.75;0.68;;;;;;;;;;5052811;28;20021;-66
2023/08/28 10:43:01;;;;;;;7.80;0.90;;;;;;;;;;5052627;28;20065;-67
2023/08/28 10:45:26;;;;;;;2.05;0.60;;;;;;;;;;5052555;28;20063;-66
2023/08/28 10:47:52;;;;;;;2.92;0.65;;;;;;;;;;5052420;28;20103;-67
2023/08/28 10:50:17;;;;;;;2.58;0.55;;;;;;;;;;5052313;28;20023;-67
2023/08/28 10:52:44;;;;;;;2.92;0.70;;;;;;;;;;5052827;28;20044;-68
2023/08/28 10:55:10;;;;;;;4.45;0.80;;;;;;;;;;5052384;28;20019;-67
2023/08/28 10:57:39;;;;;;;2.40;0.65;;;;;;;;;;5052658;28;20027;-68
2023/08/28 11:00:15;;;;;;;3.30;0.80;;;;;;;;;;5052710;28;20469;-68
2023/08/28 11:03:00;;;;;;;2.40;0.73;;;;;;;;;;5061626;28;20051;-68
2023/08/28 11:05:25;;;;;;;2.95;1.00;;;;;;;;;;5071397;28;20411;-67
2023/08/28 11:07:53;;;;;;;3.20;0.80;;;;;;;;;;5052876;28;20028;-68
2023/08/28 11:10:20;;;;;;;3.38;0.80;;;;;;;;;;5052228;28;20064;-67
2023/08/28 11:12:56;;;;;;;3.72;0.88;;;;;;;;;;5052555;28;20516;-68
2023/08/28 11:15:26;;;;;;;2.55;0.80;;;;;;;;;;5052216;28;20052;-68
2023/08/28 11:18:11;;;;;;;6.70;3.95;;;;;;;;;;5048410;28;20016;-68
2023/08/28 11:20:36;;;;;;;2.38;0.77;;;;;;;;;;5051556;28;20031;-68
2023/08/28 11:23:01;;;;;;;2.80;0.80;;;;;;;;;;5051999;28;20520;-67
2023/08/28 11:25:56;;;;;;;2.50;0.80;;;;;;;;;;5051316;28;20028;-67
2023/08/28 11:28:24;;;;;;;2.92;0.70;;;;;;;;;;4970816;28;20573;-67
2023/08/28 11:30:49;;;;;;;1.92;0.60;;;;;;;;;;4971030;28;20042;-68
2023/08/28 11:33:15;;;;;;;1.88;0.57;;;;;;;;;;4970765;28;20035;-73
2023/08/28 11:35:40;;;;;;;2.92;0.60;;;;;;;;;;4971232;28;20018;-72
2023/08/28 11:38:05;;;;;;;1.52;0.50;;;;;;;;;;4973972;28;20110;-73
2023/08/28 11:40:31;;;;;;;2.08;0.50;;;;;;;;;;4975120;28;20196;-71
2023/08/28 11:43:03;;;;;;;4.07;0.70;;;;;;;;;;4975233;28;20037;-73
2023/08/28 11:45:28;;;;;;;3.17;0.73;;;;;;;;;;4974973;28;20031;-73
2023/08/28 11:47:54;;;;;;;3.25;0.70;;;;;;;;;;4958715;28;20019;-73
2023/08/28 11:50:19;;;;;;;2.20;0.60;;;;;;;;;;4993121;28;20022;-73
2023/08/28 11:52:48;;;;;;;4.18;0.60;;;;;;;;;;4993059;28;20026;-73
2023/08/28 11:55:13;;;;;;;2.85;0.60;;;;;;;;;;4993119;28;20029;-73
2023/08/28 11:57:38;;;;;;;2.33;0.55;;;;;;;;;;4983751;28;20023;-72
2023/08/28 12:00:09;;;;;;;1.92;0.73;;;;;;;;;;4974868;28;20153;-73
2023/08/28 12:02:34;;;;;;;2.22;0.60;;;;;;;;;;4974529;28;20117;-73
2023/08/28 12:05:00;;;;;;;1.55;0.60;;;;;;;;;;5020882;28;20155;-73
2023/08/28 12:07:25;;;;;;;2.38;0.40;;;;;;;;;;5055839;28;20021;-72
2023/08/28 12:09:52;;;;;;;1.23;0.43;;;;;;;;;;5055504;28;20489;-72
2023/08/28 12:12:18;;;;;;;2.70;0.50;;;;;;;;;;5055947;28;20529;-74
2023/08/28 12:14:44;;;;;;;0.80;0.30;;;;;;;;;;5055781;28;20020;-74
2023/08/28 12:17:16;;;;;;;3.88;0.50;;;;;;;;;;5055491;28;21102;-73
2023/08/28 12:19:41;;;;;;;1.77;0.50;;;;;;;;;;5055699;28;20106;-73
2023/08/28 12:22:08;;;;;;;1.63;0.43;;;;;;;;;;5055676;28;20044;-74
2023/08/28 12:24:37;;;;;;;1.67;0.43;;;;;;;;;;5055526;28;20350;-74
2023/08/28 12:27:04;;;;;;;3.38;0.52;;;;;;;;;;5055245;28;20016;-74
2023/08/28 12:29:30;;;;;;;1.05;0.50;;;;;;;;;;5055380;28;20028;-74
2023/08/28 12:31:55;;;;;;;3.55;0.60;;;;;;;;;;5052898;28;20017;-73
2023/08/28 12:34:26;;;;;;;1.42;0.40;;;;;;;;;;5055407;28;20376;-73
2023/08/28 12:36:51;;;;;;;1.83;0.50;;;;;;;;;;5055065;28;20013;-74
2023/08/28 12:39:20;;;;;;;1.15;0.40;;;;;;;;;;5054994;28;20028;-71
2023/08/28 12:41:50;;;;;;;1.95;0.60;;;;;;;;;;5055059;28;20041;-66
2023/08/28 12:44:15;;;;;;;4.22;0.60;;;;;;;;;;5058711;28;20020;-67
2023/08/28 12:46:40;;;;;;;1.35;0.43;;;;;;;;;;5073987;28;20047;-67
2023/08/28 12:49:06;;;;;;;2.17;0.63;;;;;;;;;;5072856;28;20473;-67
2023/08/28 12:51:31;;;;;;;5.25;1.23;;;;;;;;;;5073651;28;20083;-67
2023/08/28 12:53:56;;;;;;;4.95;0.95;;;;;;;;;;5073706;28;20423;-68
2023/08/28 12:56:21;;;;;;;4.38;0.70;;;;;;;;;;5073506;28;20012;-67
2023/08/28 12:58:47;;;;;;;1.67;0.50;;;;;;;;;;5055346;28;20675;-68
2023/08/28 13:01:13;;;;;;;2.53;0.50;;;;;;;;;;5054533;28;20377;-67
2023/08/28 13:03:38;;;;;;;2.55;0.50;;;;;;;;;;5054299;28;20409;-67
2023/08/28 13:06:04;;;;;;;1.05;0.40;;;;;;;;;;5059866;28;20021;-68
2023/08/28 13:08:30;;;;;;;2.65;0.40;;;;;;;;;;5065686;28;20028;-69
2023/08/28 13:10:55;;;;;;;2.92;0.60;;;;;;;;;;5066155;28;20130;-66
2023/08/28 13:13:23;;;;;;;2.10;0.40;;;;;;;;;;5067122;28;20020;-67
2023/08/28 13:15:49;;;;;;;2.60;0.47;;;;;;;;;;5054570;28;20019;-66
2023/08/28 13:18:14;;;;;;;2.30;0.50;;;;;;;;;;5054606;28;20369;-66
2023/08/28 13:20:39;;;;;;;2.03;0.50;;;;;;;;;;5054473;28;20020;-66
2023/08/28 13:23:05;;;;;;;2.72;0.50;;;;;;;;;;5054199;28;20021;-65
2023/08/28 13:25:30;;;;;;;2.80;0.60;;;;;;;;;;5053712;28;20025;-66
2023/08/28 13:27:55;;;;;;;2.22;0.68;;;;;;;;;;5072729;28;20021;-66
2023/08/28 13:30:21;;;;;;;2.90;0.60;;;;;;;;;;5072757;28;20070;-66
2023/08/28 13:32:47;;;;;;;5.18;0.70;;;;;;;;;;5073188;28;20371;-66
2023/08/28 13:35:13;;;;;;;3.38;0.80;;;;;;;;;;5072779;28;20024;-66
2023/08/28 13:37:38;;;;;;;2.63;0.60;;;;;;;;;;5056780;28;20024;-66
2023/08/28 13:40:03;;;;;;;2.80;0.60;;;;;;;;;;5053860;28;20021;-67
2023/08/28 13:42:29;;;;;;;1.45;0.70;;;;;;;;;;5053968;28;20017;-65
2023/08/28 13:44:54;;;;;;;2.08;0.57;;;;;;;;;;5054011;28;20028;-65
2023/08/28 13:47:20;;;;;;;0.88;0.57;;;;;;;;;;5053755;28;20056;-67
2023/08/28 13:49:45;;;;;;;2.97;0.70;;;;;;;;;;5053784;28;20021;-68
2023/08/28 13:52:10;;;;;;;7.68;0.85;;;;;;;;;;5056184;28;20039;-73
2023/08/28 13:54:35;;;;;;;2.42;0.70;;;;;;;;;;5072092;28;20025;-73
2023/08/28 13:57:00;;;;;;;2.53;0.70;;;;;;;;;;5067870;28;20028;-74
2023/08/28 13:59:26;;;;;;;3.92;0.80;;;;;;;;;;5052468;28;20021;-71
2023/08/28 14:01:51;;;;;;;3.00;0.80;;;;;;;;;;5051578;28;20055;-71
2023/08/28 14:04:16;;;;;;;7.57;1.20;;;;;;;;;;5052223;28;20041;-71
2023/08/28 14:06:41;;;;;;;1.55;0.60;;;;;;;;;;5053415;28;20027;-71
2023/08/28 14:09:06;;;;;;;4.20;0.90;;;;;;;;;;5055200;28;20017;-71
2023/08/28 14:11:32;;;;;;;3.03;0.85;;;;;;;;;;5053692;28;20093;-71
2023/08/28 14:13:57;;;;;;;3.35;0.88;;;;;;;;;;5053597;28;20017;-71
2023/08/28 14:16:22;;;;;;;3.38;0.98;;;;;;;;;;5053389;28;20009;-71
2023/08/28 14:18:47;;;;;;;2.83;0.60;;;;;;;;;;5053246;28;20024;-71
2023/08/28 14:21:13;;;;;;;3.33;0.70;;;;;;;;;;5053189;28;20021;-71
2023/08/28 14:23:38;;;;;;;3.47;0.70;;;;;;;;;;5050527;28;20027;-72
2023/08/28 14:26:04;;;;;;;1.90;0.70;;;;;;;;;;5053272;28;20051;-71
2023/08/28 14:28:29;;;;;;;4.72;1.00;;;;;;;;;;5053264;28;20111;-72